Time,TemperatureF,DewpointF,PressureIn,WindDirection,WindDirectionDegrees,WindSpeedMPH,WindSpeedGustMPH,Humidity,HourlyPrecipIn,Conditions,Clouds,dailyrainin,SoftwareType,DateUTC
2013-03-05 00:00:00,29.0,22.1,29.93,NW,310,0.0,0.0,75,0.00,,BKN100,0.00,VWS V14.01,2013-03-05 05:00:00,
2013-03-05 00:01:00,28.9,22.0,29.93,NW,311,0.0,0.0,75,0.00,,BKN100,0.00,VWS V14.01,2013-03-05 05:01:00,
2013-03-05 00:06:00,28.7,22.1,29.93,NW,311,0.0,0.0,76,0.00,,BKN100,0.00,VWS V14.01,2013-03-05 05:06:00,
2013-03-05 00:11:00,28.4,21.8,29.93,NW,310,0.0,0.0,76,0.00,,BKN100,0.00,VWS V14.01,2013-03-05 05:11:00,
2013-03-05 00:16:00,28.1,21.5,29.93,NW,311,0.0,0.0,76,0.00,,BKN100,0.00,VWS V14.01,2013-03-05 05:16:00,
2013-03-05 00:21:00,27.9,21.6,29.93,NW,311,0.0,0.0,77,0.00,,BKN100,0.00,VWS V14.01,2013-03-05 05:21:00,
2013-03-05 00:26:00,27.7,21.8,29.93,NW,310,0.0,0.0,78,0.00,,BKN100,0.00,VWS V14.01,2013-03-05 05:26:00,
2013-03-05 00:31:00,27.6,22.0,29.93,NW,310,0.0,0.0,79,0.00,,BKN100,0.00,VWS V14.01,2013-03-05 05:31:00,
2013-03-05 00:36:00,27.5,21.9,29.93,NW,310,0.0,0.0,79,0.00,,BKN100,0.00,VWS V14.01,2013-03-05 05:36:00,
2013-03-05 00:41:00,27.4,21.8,29.93,NW,311,0.0,0.0,79,0.00,,BKN100,0.00,VWS V14.01,2013-03-05 05:41:00,
2013-03-05 00:46:00,27.5,22.1,29.95,NW,311,0.0,0.0,80,0.00,,BKN100,0.00,VWS V14.01,2013-03-05 05:46:00,
2013-03-05 00:51:00,27.4,22.0,29.95,NW,311,0.0,0.0,80,0.00,,BKN100,0.00,VWS V14.01,2013-03-05 05:51:00,
2013-03-05 00:56:00,27.1,21.8,29.95,NW,311,0.0,0.0,80,0.00,,BKN100,0.00,VWS V14.01,2013-03-05 05:56:00,
2013-03-05 01:01:00,26.9,21.9,29.95,NW,310,0.0,0.0,81,0.00,,BKN100,0.00,VWS V14.01,2013-03-05 06:01:00,
2013-03-05 01:06:00,26.6,21.9,29.95,NW,310,0.0,0.0,82,0.00,,BKN100,0.00,VWS V14.01,2013-03-05 06:06:00,
2013-03-05 01:11:00,26.5,22.0,29.95,NW,311,0.0,0.0,83,0.00,,BKN100,0.00,VWS V14.01,2013-03-05 06:11:00,
2013-03-05 01:16:00,26.4,22.0,29.95,NW,311,0.0,0.0,83,0.00,,BKN100,0.00,VWS V14.01,2013-03-05 06:16:00,
2013-03-05 01:21:00,26.4,22.0,29.95,NW,311,0.0,0.0,83,0.00,,BKN100,0.00,VWS V14.01,2013-03-05 06:21:00,
2013-03-05 01:26:00,26.4,22.0,29.95,NW,310,0.0,0.0,83,0.00,,BKN100,0.00,VWS V14.01,2013-03-05 06:26:00,
2013-03-05 01:31:00,26.2,21.8,29.96,NW,311,0.0,0.0,83,0.00,,BKN100,0.00,VWS V14.01,2013-03-05 06:31:00,
2013-03-05 01:36:00,26.2,22.0,29.96,NW,311,0.0,0.0,84,0.00,,BKN100,0.00,VWS V14.01,2013-03-05 06:36:00,
2013-03-05 01:41:00,26.3,21.9,29.96,NW,311,0.0,0.0,83,0.00,,BKN100,0.00,VWS V14.01,2013-03-05 06:41:00,
2013-03-05 01:46:00,26.1,21.6,29.96,NW,310,0.0,0.0,83,0.00,,BKN100,0.00,VWS V14.01,2013-03-05 06:46:00,
2013-03-05 01:51:00,26.1,21.9,29.96,NW,311,0.0,0.0,84,0.00,,BKN100,0.00,VWS V14.01,2013-03-05 06:51:00,
2013-03-05 01:56:00,25.9,21.7,29.96,NW,310,0.0,0.0,84,0.00,,BKN100,0.00,VWS V14.01,2013-03-05 06:56:00,
2013-03-05 02:01:00,25.7,21.5,29.95,NW,311,0.0,0.0,84,0.00,,BKN100,0.00,VWS V14.01,2013-03-05 07:01:00,
2013-03-05 02:06:00,25.6,21.7,29.95,NW,311,0.0,0.0,85,0.00,,BKN100,0.00,VWS V14.01,2013-03-05 07:06:00,
2013-03-05 02:11:00,25.6,21.7,29.95,NW,311,0.0,0.0,85,0.00,,BKN100,0.00,VWS V14.01,2013-03-05 07:11:00,
2013-03-05 02:16:00,25.5,21.6,29.96,NW,311,0.0,0.0,85,0.00,,BKN100,0.00,VWS V14.01,2013-03-05 07:16:00,
2013-03-05 02:21:00,25.4,21.5,29.96,NW,311,0.0,0.0,85,0.00,,BKN100,0.00,VWS V14.01,2013-03-05 07:21:00,
2013-03-05 02:26:00,25.4,21.5,29.96,NW,310,0.0,0.0,85,0.00,,BKN100,0.00,VWS V14.01,2013-03-05 07:26:00,
2013-03-05 02:31:00,25.3,21.4,29.95,NW,311,0.0,0.0,85,0.00,,BKN100,0.00,VWS V14.01,2013-03-05 07:31:00,
2013-03-05 02:37:00,25.3,21.7,29.95,NW,310,0.0,0.0,86,0.00,,BKN100,0.00,VWS V14.01,2013-03-05 07:37:00,
2013-03-05 02:42:00,25.3,21.7,29.95,NW,311,0.0,0.0,86,0.00,,BKN100,0.00,VWS V14.01,2013-03-05 07:42:00,
2013-03-05 02:47:00,25.2,21.6,29.95,NW,310,0.0,0.0,86,0.00,,BKN100,0.00,VWS V14.01,2013-03-05 07:47:00,
2013-03-05 02:52:00,25.1,21.5,29.95,NW,311,0.0,0.0,86,0.00,,BKN100,0.00,VWS V14.01,2013-03-05 07:52:00,
2013-03-05 02:57:00,25.0,21.4,29.95,NW,310,0.0,0.0,86,0.00,,BKN100,0.00,VWS V14.01,2013-03-05 07:57:00,
2013-03-05 03:02:00,24.9,21.6,29.95,NW,311,0.0,0.0,87,0.00,,BKN100,0.00,VWS V14.01,2013-03-05 08:02:00,
2013-03-05 03:07:00,24.9,21.6,29.95,NW,311,0.0,0.0,87,0.00,,BKN100,0.00,VWS V14.01,2013-03-05 08:07:00,
2013-03-05 03:12:00,24.9,21.6,29.95,NW,311,0.0,0.0,87,0.00,,BKN100,0.00,VWS V14.01,2013-03-05 08:12:00,
2013-03-05 03:17:00,24.8,21.5,29.95,NW,311,0.0,0.0,87,0.00,,BKN100,0.00,VWS V14.01,2013-03-05 08:17:00,
2013-03-05 03:22:00,24.8,21.5,29.95,NW,311,0.0,0.0,87,0.00,,BKN100,0.00,VWS V14.01,2013-03-05 08:22:00,
2013-03-05 03:27:00,24.9,21.6,29.95,NW,310,0.0,0.0,87,0.00,,BKN100,0.00,VWS V14.01,2013-03-05 08:27:00,
2013-03-05 03:32:00,24.8,21.5,29.95,NW,310,0.0,0.0,87,0.00,,BKN100,0.00,VWS V14.01,2013-03-05 08:32:00,
2013-03-05 03:37:00,24.7,21.4,29.95,NW,310,0.0,0.0,87,0.00,,BKN100,0.00,VWS V14.01,2013-03-05 08:37:00,
2013-03-05 03:42:00,25.0,22.0,29.95,NW,311,0.0,0.0,88,0.00,,BKN100,0.00,VWS V14.01,2013-03-05 08:42:00,
2013-03-05 03:47:00,25.7,22.4,29.96,NW,311,0.0,2.0,87,0.00,,BKN100,0.00,VWS V14.01,2013-03-05 08:47:00,
2013-03-05 03:52:00,25.6,22.0,29.96,NW,311,0.0,2.0,86,0.00,,BKN100,0.00,VWS V14.01,2013-03-05 08:52:00,
2013-03-05 03:57:00,25.4,21.8,29.96,NW,311,0.0,2.0,86,0.00,,BKN100,0.00,VWS V14.01,2013-03-05 08:57:00,
2013-03-05 04:02:00,25.7,22.1,29.96,NW,311,0.0,0.0,86,0.00,,BKN100,0.00,VWS V14.01,2013-03-05 09:02:00,
2013-03-05 04:07:00,25.8,22.2,29.96,NW,311,3.0,3.0,86,0.00,,BKN100,0.00,VWS V14.01,2013-03-05 09:07:00,
2013-03-05 04:12:00,26.0,22.1,29.96,NW,311,0.0,3.0,85,0.00,,BKN100,0.00,VWS V14.01,2013-03-05 09:12:00,
2013-03-05 04:17:00,26.0,22.1,29.96,NW,310,0.0,0.0,85,0.00,,BKN100,0.00,VWS V14.01,2013-03-05 09:17:00,
2013-03-05 04:22:00,26.0,22.1,29.96,NW,311,0.0,2.0,85,0.00,,BKN100,0.00,VWS V14.01,2013-03-05 09:22:00,
2013-03-05 04:27:00,26.0,22.1,29.96,NW,311,0.0,2.0,85,0.00,,BKN100,0.00,VWS V14.01,2013-03-05 09:27:00,
2013-03-05 04:32:00,25.9,22.3,29.97,NW,310,0.0,0.0,86,0.00,,BKN100,0.00,VWS V14.01,2013-03-05 09:32:00,
2013-03-05 04:37:00,25.6,22.0,29.97,NW,310,0.0,0.0,86,0.00,,BKN100,0.00,VWS V14.01,2013-03-05 09:37:00,
2013-03-05 04:42:00,25.2,21.9,29.97,NW,311,0.0,0.0,87,0.00,,BKN100,0.00,VWS V14.01,2013-03-05 09:42:00,
2013-03-05 04:47:00,24.9,21.9,29.97,NW,310,0.0,0.0,88,0.00,,BKN100,0.00,VWS V14.01,2013-03-05 09:47:00,
2013-03-05 04:52:00,24.9,21.9,29.97,NW,311,0.0,0.0,88,0.00,,BKN100,0.00,VWS V14.01,2013-03-05 09:52:00,
2013-03-05 04:57:00,24.7,21.7,29.97,NW,310,0.0,0.0,88,0.00,,BKN100,0.00,VWS V14.01,2013-03-05 09:57:00,
2013-03-05 05:02:00,24.5,21.7,29.98,NW,311,0.0,0.0,89,0.00,,BKN100,0.00,VWS V14.01,2013-03-05 10:02:00,
2013-03-05 05:07:00,24.6,21.8,29.98,NW,311,0.0,0.0,89,0.00,,BKN100,0.00,VWS V14.01,2013-03-05 10:07:00,
2013-03-05 05:13:00,24.8,22.0,29.98,NW,311,0.0,0.0,89,0.00,,BKN100,0.00,VWS V14.01,2013-03-05 10:13:00,
2013-03-05 05:18:00,24.7,21.9,29.98,NW,311,0.0,0.0,89,0.00,,BKN100,0.00,VWS V14.01,2013-03-05 10:18:00,
2013-03-05 05:23:00,24.4,21.6,29.98,NW,311,0.0,0.0,89,0.00,,BKN100,0.00,VWS V14.01,2013-03-05 10:23:00,
2013-03-05 05:28:00,24.1,21.3,29.98,NW,311,0.0,0.0,89,0.00,,BKN100,0.00,VWS V14.01,2013-03-05 10:28:00,
2013-03-05 05:33:00,23.9,21.4,29.98,NW,311,0.0,0.0,90,0.00,,BKN100,0.00,VWS V14.01,2013-03-05 10:33:00,
2013-03-05 05:38:00,23.9,21.4,29.98,NW,311,0.0,0.0,90,0.00,,BKN100,0.00,VWS V14.01,2013-03-05 10:38:00,
2013-03-05 05:43:00,23.8,21.6,29.98,NW,311,0.0,0.0,91,0.00,,BKN100,0.00,VWS V14.01,2013-03-05 10:43:00,
2013-03-05 05:48:00,23.6,21.1,29.98,NW,310,0.0,0.0,90,0.00,,BKN100,0.00,VWS V14.01,2013-03-05 10:48:00,
2013-03-05 05:53:00,23.5,21.3,29.98,NW,310,0.0,0.0,91,0.00,,BKN100,0.00,VWS V14.01,2013-03-05 10:53:00,
2013-03-05 05:58:00,23.4,21.2,29.98,NW,310,0.0,0.0,91,0.00,,BKN100,0.00,VWS V14.01,2013-03-05 10:58:00,
2013-03-05 06:03:00,23.6,21.4,29.98,NW,311,0.0,0.0,91,0.00,,BKN100,0.00,VWS V14.01,2013-03-05 11:03:00,
2013-03-05 06:08:00,23.8,21.6,29.98,NW,311,0.0,0.0,91,0.00,,BKN100,0.00,VWS V14.01,2013-03-05 11:08:00,
2013-03-05 06:13:00,23.9,21.9,29.98,NW,310,0.0,0.0,92,0.00,,BKN100,0.00,VWS V14.01,2013-03-05 11:13:00,
2013-03-05 06:18:00,23.9,21.7,29.98,NW,310,0.0,0.0,91,0.00,,BKN100,0.00,VWS V14.01,2013-03-05 11:18:00,
2013-03-05 06:23:00,23.7,21.5,29.98,NW,310,0.0,0.0,91,0.00,,BKN100,0.00,VWS V14.01,2013-03-05 11:23:00,
2013-03-05 06:28:00,23.5,21.3,29.98,NW,311,0.0,0.0,91,0.00,,BKN100,0.00,VWS V14.01,2013-03-05 11:28:00,
2013-03-05 06:33:00,23.4,21.2,29.98,NW,311,0.0,0.0,91,0.00,,BKN100,0.00,VWS V14.01,2013-03-05 11:33:00,
2013-03-05 06:38:00,23.5,21.5,29.98,NW,311,0.0,0.0,92,0.00,,BKN100,0.00,VWS V14.01,2013-03-05 11:38:00,
2013-03-05 06:43:00,23.5,21.5,29.98,NW,311,0.0,0.0,92,0.00,,BKN100,0.00,VWS V14.01,2013-03-05 11:43:00,
2013-03-05 06:48:00,23.8,21.8,29.99,NW,310,0.0,0.0,92,0.00,,BKN100,0.00,VWS V14.01,2013-03-05 11:48:00,
2013-03-05 06:53:00,24.0,22.0,29.99,NW,311,0.0,0.0,92,0.00,,BKN100,0.00,VWS V14.01,2013-03-05 11:53:00,
2013-03-05 06:58:00,24.2,22.2,29.99,NW,311,0.0,0.0,92,0.00,,BKN100,0.00,VWS V14.01,2013-03-05 11:58:00,
2013-03-05 07:03:00,24.2,22.2,29.99,NW,310,0.0,0.0,92,0.00,,BKN100,0.00,VWS V14.01,2013-03-05 12:03:00,
2013-03-05 07:08:00,24.2,22.0,29.99,NW,311,0.0,0.0,91,0.00,,BKN100,0.00,VWS V14.01,2013-03-05 12:08:00,
2013-03-05 07:13:00,24.3,22.3,29.99,NW,310,0.0,0.0,92,0.00,,BKN100,0.00,VWS V14.01,2013-03-05 12:13:00,
2013-03-05 07:18:00,24.6,22.6,29.99,NW,311,0.0,1.0,92,0.00,,BKN100,0.00,VWS V14.01,2013-03-05 12:18:00,
2013-03-05 07:23:00,25.2,23.2,29.99,NW,311,0.0,1.0,92,0.00,,BKN100,0.00,VWS V14.01,2013-03-05 12:23:00,
2013-03-05 07:28:00,25.9,23.6,29.99,NW,310,0.0,1.0,91,0.00,,BKN100,0.00,VWS V14.01,2013-03-05 12:28:00,
2013-03-05 07:33:00,26.4,23.9,29.99,NW,311,0.0,2.0,90,0.00,,BKN100,0.00,VWS V14.01,2013-03-05 12:33:00,
2013-03-05 07:38:00,27.2,24.4,29.99,NW,311,0.0,2.0,89,0.00,,BKN100,0.00,VWS V14.01,2013-03-05 12:38:00,
2013-03-05 07:43:00,28.3,24.7,29.99,NW,311,3.0,4.0,86,0.00,,BKN100,0.00,VWS V14.01,2013-03-05 12:43:00,
2013-03-05 07:48:00,29.4,24.9,29.99,NW,310,0.0,2.0,83,0.00,,BKN100,0.00,VWS V14.01,2013-03-05 12:48:00,
2013-03-05 07:53:00,30.4,25.0,29.99,NW,310,1.0,4.0,80,0.00,,BKN100,0.00,VWS V14.01,2013-03-05 12:53:00,
2013-03-05 07:58:00,31.5,25.4,29.99,NW,311,0.0,4.0,78,0.00,,BKN100,0.00,VWS V14.01,2013-03-05 12:58:00,
2013-03-05 08:03:00,32.5,25.5,30.00,NW,310,0.0,1.0,75,0.00,,BKN100,0.00,VWS V14.01,2013-03-05 13:03:00,
2013-03-05 08:08:00,33.2,25.5,30.00,NW,311,0.0,1.0,73,0.00,,BKN100,0.00,VWS V14.01,2013-03-05 13:08:00,
2013-03-05 08:13:00,33.6,25.2,30.00,NW,311,3.0,4.0,71,0.00,,BKN100,0.00,VWS V14.01,2013-03-05 13:13:00,
2013-03-05 08:18:00,33.8,25.1,30.00,NW,310,0.0,3.0,70,0.00,,BKN100,0.00,VWS V14.01,2013-03-05 13:18:00,
2013-03-05 08:23:00,34.0,25.3,30.00,NW,311,0.0,4.0,70,0.00,,BKN100,0.00,VWS V14.01,2013-03-05 13:23:00,
2013-03-05 08:28:00,34.0,24.6,30.00,NW,315,0.0,4.0,68,0.00,,BKN100,0.00,VWS V14.01,2013-03-05 13:28:00,
2013-03-05 08:33:00,34.4,25.0,30.00,NW,317,0.0,2.0,68,0.00,,BKN100,0.00,VWS V14.01,2013-03-05 13:33:00,
2013-03-05 08:38:00,34.4,23.9,30.00,NW,324,0.0,2.0,65,0.00,,BKN100,0.00,VWS V14.01,2013-03-05 13:38:00,
2013-03-05 08:43:00,34.7,24.5,30.00,NNW,346,0.0,2.0,66,0.00,,BKN100,0.00,VWS V14.01,2013-03-05 13:43:00,
2013-03-05 08:48:00,35.0,24.4,30.00,North,355,0.0,0.0,65,0.00,,BKN100,0.00,VWS V14.01,2013-03-05 13:48:00,
2013-03-05 08:53:00,35.6,24.3,30.00,NNW,342,0.0,0.0,63,0.00,,BKN100,0.00,VWS V14.01,2013-03-05 13:53:00,
2013-03-05 08:59:00,35.6,24.6,30.00,NNW,343,0.0,0.0,64,0.00,,BKN100,0.00,VWS V14.01,2013-03-05 13:59:00,
2013-03-05 09:03:00,36.8,25.8,30.00,NNW,344,0.0,0.0,64,0.00,,BKN100,0.00,VWS V14.01,2013-03-05 14:03:00,
2013-03-05 09:09:00,37.2,25.4,30.00,NNW,342,2.0,2.0,62,0.00,,BKN100,0.00,VWS V14.01,2013-03-05 14:09:00,
2013-03-05 09:14:00,37.4,25.6,30.00,NNW,334,0.0,5.0,62,0.00,,BKN100,0.00,VWS V14.01,2013-03-05 14:14:00,
2013-03-05 09:19:00,37.3,25.1,30.00,NNW,330,0.0,0.0,61,0.00,,BKN100,0.00,VWS V14.01,2013-03-05 14:19:00,
2013-03-05 09:24:00,37.6,25.0,30.00,NNW,330,0.0,5.0,60,0.00,,BKN100,0.00,VWS V14.01,2013-03-05 14:24:00,
2013-03-05 09:29:00,37.1,24.9,30.00,NNW,342,1.0,5.0,61,0.00,,BKN100,0.00,VWS V14.01,2013-03-05 14:29:00,
2013-03-05 09:34:00,37.7,25.1,30.00,NNW,327,1.0,5.0,60,0.00,,BKN100,0.00,VWS V14.01,2013-03-05 14:34:00,
2013-03-05 09:39:00,38.1,25.1,30.00,NNW,329,0.0,5.0,59,0.00,,BKN100,0.00,VWS V14.01,2013-03-05 14:39:00,
2013-03-05 09:44:00,37.8,25.2,30.00,NW,309,0.0,5.0,60,0.00,,BKN100,0.00,VWS V14.01,2013-03-05 14:44:00,
2013-03-05 09:49:00,38.4,25.3,30.00,NW,309,0.0,1.0,59,0.00,,BKN100,0.00,VWS V14.01,2013-03-05 14:49:00,
2013-03-05 09:54:00,39.4,25.9,30.00,NNW,329,2.0,6.0,58,0.00,,BKN100,0.00,VWS V14.01,2013-03-05 14:54:00,
2013-03-05 09:59:00,40.1,25.2,30.00,NW,313,1.0,9.0,55,0.00,,BKN100,0.00,VWS V14.01,2013-03-05 14:59:00,
2013-03-05 10:04:00,39.8,25.4,29.99,NNW,342,2.0,7.0,56,0.00,,BKN100,0.00,VWS V14.01,2013-03-05 15:04:00,
2013-03-05 10:09:00,40.0,25.6,29.99,NW,311,1.0,9.0,56,0.00,,BKN100,0.00,VWS V14.01,2013-03-05 15:09:00,
2013-03-05 10:14:00,39.5,24.2,29.99,WNW,294,4.0,9.0,54,0.00,,BKN100,0.00,VWS V14.01,2013-03-05 15:14:00,
2013-03-05 10:19:00,39.8,25.8,29.99,NNW,336,8.0,14.0,57,0.00,,BKN100,0.00,VWS V14.01,2013-03-05 15:19:00,
2013-03-05 10:24:00,40.3,25.4,29.99,NNW,330,0.0,14.0,55,0.00,,BKN100,0.00,VWS V14.01,2013-03-05 15:24:00,
2013-03-05 10:29:00,40.1,25.2,29.99,WNW,301,1.0,14.0,55,0.00,,BKN100,0.00,VWS V14.01,2013-03-05 15:29:00,
2013-03-05 10:34:00,40.9,26.4,29.98,WNW,300,3.0,3.0,56,0.00,,BKN100,0.00,VWS V14.01,2013-03-05 15:34:00,
2013-03-05 10:39:00,42.8,26.9,29.98,NNW,343,2.0,7.0,53,0.00,,BKN100,0.00,VWS V14.01,2013-03-05 15:39:00,
2013-03-05 10:44:00,43.3,26.4,29.98,North,355,2.0,7.0,51,0.00,,BKN100,0.00,VWS V14.01,2013-03-05 15:44:00,
2013-03-05 10:49:00,43.7,27.2,29.97,North,349,0.0,9.0,52,0.00,,BKN100,0.00,VWS V14.01,2013-03-05 15:49:00,
2013-03-05 10:54:00,44.0,27.5,29.97,West,279,2.0,9.0,52,0.00,,BKN100,0.00,VWS V14.01,2013-03-05 15:54:00,
2013-03-05 10:59:00,43.9,26.0,29.97,WSW,252,0.0,9.0,49,0.00,,BKN100,0.00,VWS V14.01,2013-03-05 15:59:00,
2013-03-05 11:04:00,43.7,26.3,29.97,WNW,302,0.0,5.0,50,0.00,,BKN100,0.00,VWS V14.01,2013-03-05 16:04:00,
2013-03-05 11:09:00,43.1,26.2,29.97,NNW,334,2.0,5.0,51,0.00,,BKN100,0.00,VWS V14.01,2013-03-05 16:09:00,
2013-03-05 11:14:00,43.9,27.0,29.97,NNW,333,5.0,5.0,51,0.00,,BKN100,0.00,VWS V14.01,2013-03-05 16:14:00,
2013-03-05 11:19:00,44.2,26.8,29.96,NNW,334,0.0,4.0,50,0.00,,BKN100,0.00,VWS V14.01,2013-03-05 16:19:00,
2013-03-05 11:24:00,44.8,27.3,29.96,NNW,334,2.0,4.0,50,0.00,,BKN100,0.00,VWS V14.01,2013-03-05 16:24:00,
2013-03-05 11:30:00,44.3,26.9,29.96,NW,326,6.0,10.0,50,0.00,,BKN100,0.00,VWS V14.01,2013-03-05 16:30:00,
2013-03-05 11:35:00,44.9,26.9,29.95,NNW,337,0.0,3.0,49,0.00,,BKN100,0.00,VWS V14.01,2013-03-05 16:35:00,
2013-03-05 11:40:00,45.2,27.7,29.95,North,355,1.0,7.0,50,0.00,,BKN100,0.00,VWS V14.01,2013-03-05 16:40:00,
2013-03-05 11:45:00,45.2,26.7,29.95,NNW,348,0.0,7.0,48,0.00,,BKN100,0.00,VWS V14.01,2013-03-05 16:45:00,
2013-03-05 11:50:00,45.2,26.2,29.95,West,275,4.0,4.0,47,0.00,,BKN100,0.00,VWS V14.01,2013-03-05 16:50:00,
2013-03-05 11:55:00,45.2,26.7,29.95,NNW,329,3.0,5.0,48,0.00,,BKN100,0.00,VWS V14.01,2013-03-05 16:55:00,
2013-03-05 12:00:00,45.0,26.5,29.96,WNW,298,3.0,5.0,48,0.00,,BKN100,0.00,VWS V14.01,2013-03-05 17:00:00,
2013-03-05 12:05:00,45.1,27.1,29.96,NW,304,0.0,4.0,49,0.00,,BKN100,0.00,VWS V14.01,2013-03-05 17:05:00,
2013-03-05 12:10:00,45.6,26.5,29.96,WNW,296,3.0,5.0,47,0.00,,BKN100,0.00,VWS V14.01,2013-03-05 17:10:00,
2013-03-05 12:15:00,45.9,26.8,29.95,WNW,288,3.0,5.0,47,0.00,,BKN100,0.00,VWS V14.01,2013-03-05 17:15:00,
2013-03-05 12:20:00,46.9,27.2,29.95,NW,307,5.0,7.0,46,0.00,,BKN100,0.00,VWS V14.01,2013-03-05 17:20:00,
2013-03-05 12:25:00,47.4,27.1,29.95,West,277,1.0,7.0,45,0.00,,BKN100,0.00,VWS V14.01,2013-03-05 17:25:00,
2013-03-05 12:30:00,47.2,27.5,29.94,NW,321,4.0,7.0,46,0.00,,BKN100,0.00,VWS V14.01,2013-03-05 17:30:00,
2013-03-05 12:35:00,47.8,27.5,29.94,NE,45,0.0,4.0,45,0.00,,BKN100,0.00,VWS V14.01,2013-03-05 17:35:00,
2013-03-05 12:40:00,47.8,25.8,29.94,WSW,245,2.0,7.0,42,0.00,,BKN100,0.00,VWS V14.01,2013-03-05 17:40:00,
2013-03-05 12:45:00,46.9,25.6,29.93,WNW,290,0.0,10.0,43,0.00,,BKN100,0.00,VWS V14.01,2013-03-05 17:45:00,
2013-03-05 12:50:00,46.5,26.3,29.93,WNW,295,0.0,5.0,45,0.00,,BKN100,0.00,VWS V14.01,2013-03-05 17:50:00,
2013-03-05 12:55:00,47.5,27.2,29.93,NW,312,4.0,7.0,45,0.00,,BKN100,0.00,VWS V14.01,2013-03-05 17:55:00,
2013-03-05 13:00:00,48.0,26.6,29.92,WNW,292,1.0,7.0,43,0.00,,BKN100,0.00,VWS V14.01,2013-03-05 18:00:00,
2013-03-05 13:05:00,48.9,29.0,29.92,NNW,348,2.0,5.0,46,0.00,,BKN100,0.00,VWS V14.01,2013-03-05 18:05:00,
2013-03-05 13:10:00,49.9,29.4,29.92,ENE,65,6.0,7.0,45,0.00,,BKN100,0.00,VWS V14.01,2013-03-05 18:10:00,
2013-03-05 13:15:00,50.8,29.7,29.92,NE,36,3.0,8.0,44,0.00,,BKN100,0.00,VWS V14.01,2013-03-05 18:15:00,
2013-03-05 13:20:00,51.3,29.6,29.92,NE,39,4.0,4.0,43,0.00,,BKN100,0.00,VWS V14.01,2013-03-05 18:20:00,
2013-03-05 13:25:00,51.5,29.8,29.92,ESE,103,5.0,7.0,43,0.00,,BKN100,0.00,VWS V14.01,2013-03-05 18:25:00,
2013-03-05 13:30:00,51.4,29.7,29.90,ENE,67,2.0,8.0,43,0.00,,BKN100,0.00,VWS V14.01,2013-03-05 18:30:00,
2013-03-05 13:35:00,51.4,29.7,29.90,ENE,66,4.0,10.0,43,0.00,,BKN100,0.00,VWS V14.01,2013-03-05 18:35:00,
2013-03-05 13:40:00,51.7,29.9,29.90,NNE,17,3.0,10.0,43,0.00,,BKN100,0.00,VWS V14.01,2013-03-05 18:40:00,
2013-03-05 13:45:00,52.1,30.3,29.90,East,96,4.0,10.0,43,0.00,,BKN100,0.00,VWS V14.01,2013-03-05 18:45:00,
2013-03-05 13:50:00,52.4,30.0,29.90,NNE,14,1.0,12.0,42,0.00,,BKN100,0.00,VWS V14.01,2013-03-05 18:50:00,
2013-03-05 13:55:00,52.4,30.6,29.90,East,79,0.0,12.0,43,0.00,,BKN100,0.00,VWS V14.01,2013-03-05 18:55:00,
2013-03-05 14:00:00,52.6,30.2,29.89,ENE,67,9.0,12.0,42,0.00,,BKN100,0.00,VWS V14.01,2013-03-05 19:00:00,
2013-03-05 14:05:00,52.8,29.8,29.89,ENE,58,0.0,7.0,41,0.00,,BKN100,0.00,VWS V14.01,2013-03-05 19:05:00,
2013-03-05 14:10:00,52.3,28.7,29.89,ENE,76,0.0,7.0,40,0.00,,BKN100,0.00,VWS V14.01,2013-03-05 19:10:00,
2013-03-05 14:15:00,51.9,30.7,29.89,ENE,72,0.0,7.0,44,0.00,,BKN100,0.00,VWS V14.01,2013-03-05 19:15:00,
2013-03-05 14:20:00,51.6,30.4,29.89,NNE,24,0.0,0.0,44,0.00,,BKN100,0.00,VWS V14.01,2013-03-05 19:20:00,
2013-03-05 14:25:00,51.4,29.7,29.89,NNE,28,0.0,0.0,43,0.00,,BKN100,0.00,VWS V14.01,2013-03-05 19:25:00,
2013-03-05 14:30:00,51.1,30.0,29.89,NE,48,0.0,4.0,44,0.00,,BKN100,0.00,VWS V14.01,2013-03-05 19:30:00,
2013-03-05 14:35:00,51.0,30.4,29.89,ENE,72,8.0,8.0,45,0.00,,BKN100,0.00,VWS V14.01,2013-03-05 19:35:00,
2013-03-05 14:40:00,51.2,30.6,29.89,NNE,28,4.0,9.0,45,0.00,,BKN100,0.00,VWS V14.01,2013-03-05 19:40:00,
2013-03-05 14:46:00,50.8,30.2,29.89,East,94,4.0,9.0,45,0.00,,BKN100,0.00,VWS V14.01,2013-03-05 19:46:00,
2013-03-05 14:51:00,50.4,31.0,29.89,ENE,59,5.0,8.0,47,0.00,,BKN100,0.00,VWS V14.01,2013-03-05 19:51:00,
2013-03-05 14:56:00,51.1,31.6,29.89,ENE,67,0.0,10.0,47,0.00,,BKN100,0.00,VWS V14.01,2013-03-05 19:56:00,
2013-03-05 15:01:00,52.1,32.0,29.88,ENE,67,7.0,11.0,46,0.00,,BKN100,0.00,VWS V14.01,2013-03-05 20:01:00,
2013-03-05 15:06:00,53.3,32.5,29.88,ENE,67,6.0,10.0,45,0.00,,BKN100,0.00,VWS V14.01,2013-03-05 20:06:00,
2013-03-05 15:11:00,53.9,32.5,29.88,NE,55,3.0,10.0,44,0.00,,BKN100,0.00,VWS V14.01,2013-03-05 20:11:00,
2013-03-05 15:16:00,53.9,31.9,29.87,ENE,67,1.0,10.0,43,0.00,,BKN100,0.00,VWS V14.01,2013-03-05 20:16:00,
2013-03-05 15:21:00,53.1,31.8,29.87,East,80,4.0,12.0,44,0.00,,BKN100,0.00,VWS V14.01,2013-03-05 20:21:00,
2013-03-05 15:26:00,51.5,30.9,29.87,ENE,69,0.0,12.0,45,0.00,,BKN100,0.00,VWS V14.01,2013-03-05 20:26:00,
2013-03-05 15:31:00,51.4,30.8,29.86,ENE,61,0.0,0.0,45,0.00,,BKN100,0.00,VWS V14.01,2013-03-05 20:31:00,
2013-03-05 15:36:00,50.8,30.2,29.86,East,96,0.0,0.0,45,0.00,,BKN100,0.00,VWS V14.01,2013-03-05 20:36:00,
2013-03-05 15:41:00,50.1,30.7,29.86,East,84,0.0,9.0,47,0.00,,BKN100,0.00,VWS V14.01,2013-03-05 20:41:00,
2013-03-05 15:46:00,50.8,30.8,29.86,East,82,0.0,0.0,46,0.00,,BKN100,0.00,VWS V14.01,2013-03-05 20:46:00,
2013-03-05 15:51:00,51.4,31.3,29.86,East,79,0.0,0.0,46,0.00,,BKN100,0.00,VWS V14.01,2013-03-05 20:51:00,
2013-03-05 15:56:00,51.4,31.3,29.86,ESE,121,0.0,0.0,46,0.00,,BKN100,0.00,VWS V14.01,2013-03-05 20:56:00,
2013-03-05 16:01:00,50.1,31.2,29.87,East,85,0.0,0.0,48,0.00,,BKN100,0.00,VWS V14.01,2013-03-05 21:01:00,
2013-03-05 16:06:00,49.8,31.4,29.87,East,97,0.0,0.0,49,0.00,,BKN100,0.00,VWS V14.01,2013-03-05 21:06:00,
2013-03-05 16:11:00,50.5,32.6,29.87,ENE,67,0.0,0.0,50,0.00,,BKN100,0.00,VWS V14.01,2013-03-05 21:11:00,
2013-03-05 16:16:00,51.4,32.4,29.87,ENE,59,0.0,0.0,48,0.00,,BKN100,0.00,VWS V14.01,2013-03-05 21:16:00,
2013-03-05 16:21:00,51.2,32.2,29.87,East,88,0.0,0.0,48,0.00,,BKN100,0.00,VWS V14.01,2013-03-05 21:21:00,
2013-03-05 16:26:00,49.3,31.5,29.87,ENE,60,0.0,0.0,50,0.00,,BKN100,0.00,VWS V14.01,2013-03-05 21:26:00,
2013-03-05 16:31:00,48.3,31.5,29.87,ENE,78,0.0,0.0,52,0.00,,BKN100,0.00,VWS V14.01,2013-03-05 21:31:00,
2013-03-05 16:36:00,47.3,31.5,29.87,ENE,65,0.0,0.0,54,0.00,,BKN100,0.00,VWS V14.01,2013-03-05 21:36:00,
2013-03-05 16:41:00,46.8,31.5,29.87,East,82,0.0,0.0,55,0.00,,BKN100,0.00,VWS V14.01,2013-03-05 21:41:00,
2013-03-05 16:46:00,46.4,31.6,29.87,ENE,75,0.0,0.0,56,0.00,,BKN100,0.00,VWS V14.01,2013-03-05 21:46:00,
2013-03-05 16:51:00,45.8,31.5,29.87,East,94,0.0,0.0,57,0.00,,BKN100,0.00,VWS V14.01,2013-03-05 21:51:00,
2013-03-05 16:56:00,45.3,31.4,29.87,ESE,117,0.0,0.0,58,0.00,,BKN100,0.00,VWS V14.01,2013-03-05 21:56:00,
2013-03-05 17:01:00,45.0,31.5,29.87,ENE,67,0.0,0.0,59,0.00,,BKN100,0.00,VWS V14.01,2013-03-05 22:01:00,
2013-03-05 17:06:00,44.9,31.5,29.87,ENE,65,0.0,0.0,59,0.00,,BKN100,0.00,VWS V14.01,2013-03-05 22:06:00,
2013-03-05 17:11:00,44.5,31.5,29.87,ESE,102,0.0,0.0,60,0.00,,BKN100,0.00,VWS V14.01,2013-03-05 22:11:00,
2013-03-05 17:16:00,43.9,30.9,29.87,ESE,107,0.0,0.0,60,0.00,,BKN100,0.00,VWS V14.01,2013-03-05 22:16:00,
2013-03-05 17:21:00,43.5,31.0,29.87,SE,126,0.0,0.0,61,0.00,,BKN100,0.00,VWS V14.01,2013-03-05 22:21:00,
2013-03-05 17:26:00,43.2,31.1,29.87,ESE,113,0.0,0.0,62,0.00,,BKN100,0.00,VWS V14.01,2013-03-05 22:26:00,
2013-03-05 17:31:00,43.0,30.9,29.88,ESE,111,0.0,0.0,62,0.00,,BKN100,0.00,VWS V14.01,2013-03-05 22:31:00,
2013-03-05 17:36:00,42.8,30.7,29.88,ESE,114,0.0,0.0,62,0.00,,BKN100,0.00,VWS V14.01,2013-03-05 22:36:00,
2013-03-05 17:41:00,42.8,31.1,29.88,ESE,114,0.0,0.0,63,0.00,,BKN100,0.00,VWS V14.01,2013-03-05 22:41:00,
2013-03-05 17:46:00,42.7,31.0,29.88,ESE,115,0.0,0.0,63,0.00,,BKN100,0.00,VWS V14.01,2013-03-05 22:46:00,
2013-03-05 17:51:00,42.6,31.3,29.88,ESE,115,0.0,0.0,64,0.00,,BKN100,0.00,VWS V14.01,2013-03-05 22:51:00,
2013-03-05 17:56:00,42.6,31.3,29.88,ESE,115,0.0,0.0,64,0.00,,BKN100,0.00,VWS V14.01,2013-03-05 22:56:00,
2013-03-05 18:01:00,42.5,31.6,29.87,ESE,115,0.0,0.0,65,0.00,,BKN100,0.00,VWS V14.01,2013-03-05 23:01:00,
2013-03-05 18:06:00,42.5,31.6,29.87,ESE,115,0.0,1.0,65,0.00,,BKN100,0.00,VWS V14.01,2013-03-05 23:06:00,
2013-03-05 18:11:00,42.4,31.5,29.87,ESE,115,0.0,1.0,65,0.00,,BKN100,0.00,VWS V14.01,2013-03-05 23:11:00,
2013-03-05 18:16:00,42.3,31.4,29.87,ESE,115,0.0,0.0,65,0.00,,BKN100,0.00,VWS V14.01,2013-03-05 23:16:00,
2013-03-05 18:21:00,42.2,31.7,29.87,ESE,115,0.0,4.0,66,0.00,,BKN100,0.00,VWS V14.01,2013-03-05 23:21:00,
2013-03-05 18:26:00,42.1,31.6,29.87,ESE,115,0.0,4.0,66,0.00,,BKN100,0.00,VWS V14.01,2013-03-05 23:26:00,
2013-03-05 18:31:00,41.9,31.4,29.87,ESE,115,0.0,2.0,66,0.00,,BKN100,0.00,VWS V14.01,2013-03-05 23:31:00,
2013-03-05 18:36:00,41.7,31.2,29.87,ESE,114,0.0,2.0,66,0.00,,BKN100,0.00,VWS V14.01,2013-03-05 23:36:00,
2013-03-05 18:41:00,41.4,31.3,29.87,ESE,114,0.0,2.0,67,0.00,,BKN100,0.00,VWS V14.01,2013-03-05 23:41:00,
2013-03-05 18:46:00,41.3,31.2,29.87,ESE,115,1.0,1.0,67,0.00,,BKN100,0.00,VWS V14.01,2013-03-05 23:46:00,
2013-03-05 18:51:00,41.2,31.5,29.87,ESE,115,0.0,2.0,68,0.00,,BKN100,0.00,VWS V14.01,2013-03-05 23:51:00,
2013-03-05 18:57:00,41.1,31.4,29.87,ESE,115,0.0,2.0,68,0.00,,BKN100,0.00,VWS V14.01,2013-03-05 23:57:00,
2013-03-05 19:02:00,41.2,31.5,29.86,ESE,115,0.0,0.0,68,0.00,,BKN100,0.00,VWS V14.01,2013-03-06 00:02:00,
2013-03-05 19:07:00,41.3,31.9,29.86,ESE,114,0.0,2.0,69,0.00,,BKN100,0.00,VWS V14.01,2013-03-06 00:07:00,
2013-03-05 19:12:00,41.3,31.9,29.86,ESE,115,2.0,2.0,69,0.00,,BKN100,0.00,VWS V14.01,2013-03-06 00:12:00,
2013-03-05 19:17:00,41.4,32.0,29.86,ESE,115,1.0,1.0,69,0.00,,BKN100,0.00,VWS V14.01,2013-03-06 00:17:00,
2013-03-05 19:22:00,41.5,32.1,29.86,ESE,114,3.0,3.0,69,0.00,,BKN100,0.00,VWS V14.01,2013-03-06 00:22:00,
2013-03-05 19:27:00,41.5,32.1,29.86,ESE,113,0.0,3.0,69,0.00,,BKN100,0.00,VWS V14.01,2013-03-06 00:27:00,
2013-03-05 19:32:00,41.6,32.2,29.86,ESE,113,0.0,0.0,69,0.00,,BKN100,0.00,VWS V14.01,2013-03-06 00:32:00,
2013-03-05 19:37:00,41.6,32.2,29.86,East,98,0.0,4.0,69,0.00,,BKN100,0.00,VWS V14.01,2013-03-06 00:37:00,
2013-03-05 19:42:00,41.6,32.2,29.86,East,96,0.0,4.0,69,0.00,,BKN100,0.00,VWS V14.01,2013-03-06 00:42:00,
2013-03-05 19:47:00,41.6,32.2,29.85,East,95,1.0,1.0,69,0.00,,BKN100,0.00,VWS V14.01,2013-03-06 00:47:00,
2013-03-05 19:52:00,41.6,32.2,29.85,East,96,1.0,3.0,69,0.00,,BKN100,0.00,VWS V14.01,2013-03-06 00:52:00,
2013-03-05 19:57:00,41.6,32.6,29.85,East,96,0.0,3.0,70,0.00,,BKN100,0.00,VWS V14.01,2013-03-06 00:57:00,
2013-03-05 20:02:00,41.7,32.7,29.85,East,96,0.0,0.0,70,0.00,,BKN100,0.00,VWS V14.01,2013-03-06 01:02:00,
2013-03-05 20:07:00,41.7,32.7,29.85,East,95,0.0,2.0,70,0.00,,BKN100,0.00,VWS V14.01,2013-03-06 01:07:00,
2013-03-05 20:12:00,41.7,32.7,29.85,East,92,3.0,4.0,70,0.00,,BKN100,0.00,VWS V14.01,2013-03-06 01:12:00,
2013-03-05 20:17:00,41.7,33.0,29.85,East,92,2.0,3.0,71,0.00,,BKN100,0.00,VWS V14.01,2013-03-06 01:17:00,
2013-03-05 20:22:00,41.8,33.1,29.85,ENE,71,2.0,5.0,71,0.00,,BKN100,0.00,VWS V14.01,2013-03-06 01:22:00,
2013-03-05 20:27:00,41.7,33.0,29.85,East,82,0.0,5.0,71,0.00,,BKN100,0.00,VWS V14.01,2013-03-06 01:27:00,
2013-03-05 20:32:00,41.7,33.3,29.84,ENE,69,3.0,5.0,72,0.00,,BKN100,0.00,VWS V14.01,2013-03-06 01:32:00,
2013-03-05 20:37:00,41.7,33.7,29.84,ENE,71,6.0,12.0,73,0.00,,BKN100,0.00,VWS V14.01,2013-03-06 01:37:00,
2013-03-05 20:42:00,41.7,34.0,29.84,East,86,5.0,12.0,74,0.00,,BKN100,0.00,VWS V14.01,2013-03-06 01:42:00,
2013-03-05 20:47:00,41.7,34.4,29.84,ENE,59,0.0,6.0,75,0.00,,BKN100,0.00,VWS V14.01,2013-03-06 01:47:00,
2013-03-05 20:52:00,41.7,34.7,29.84,East,91,0.0,6.0,76,0.00,,BKN100,0.00,VWS V14.01,2013-03-06 01:52:00,
2013-03-05 20:57:00,41.7,34.7,29.84,East,98,0.0,6.0,76,0.00,,BKN100,0.00,VWS V14.01,2013-03-06 01:57:00,
2013-03-05 21:02:00,41.6,34.9,29.84,East,91,0.0,0.0,77,0.00,,BKN100,0.00,VWS V14.01,2013-03-06 02:02:00,
2013-03-05 21:07:00,41.6,34.9,29.84,ENE,72,0.0,0.0,77,0.00,,BKN100,0.00,VWS V14.01,2013-03-06 02:07:00,
2013-03-05 21:12:00,41.5,34.2,29.84,ESE,110,0.0,0.0,75,0.00,,BKN100,0.00,VWS V14.01,2013-03-06 02:12:00,
2013-03-05 21:17:00,41.4,33.8,29.83,East,96,0.0,0.0,74,0.00,,BKN100,0.00,VWS V14.01,2013-03-06 02:17:00,
2013-03-05 21:22:00,41.3,34.0,29.83,East,94,0.0,0.0,75,0.00,,BKN100,0.00,VWS V14.01,2013-03-06 02:22:00,
2013-03-05 21:27:00,41.1,34.5,29.83,ESE,117,0.0,0.0,77,0.00,,BKN100,0.00,VWS V14.01,2013-03-06 02:27:00,
2013-03-05 21:32:00,41.0,34.7,29.83,East,86,0.0,0.0,78,0.00,,BKN100,0.00,VWS V14.01,2013-03-06 02:32:00,
2013-03-05 21:37:00,40.7,34.4,29.83,ESE,102,0.0,0.0,78,0.00,,BKN100,0.00,VWS V14.01,2013-03-06 02:37:00,
2013-03-05 21:42:00,40.5,34.2,29.83,ESE,105,0.0,0.0,78,0.00,,BKN100,0.00,VWS V14.01,2013-03-06 02:42:00,
2013-03-05 21:47:00,40.2,33.9,29.83,ENE,67,0.0,0.0,78,0.00,,BKN100,0.00,VWS V14.01,2013-03-06 02:47:00,
2013-03-05 21:52:00,40.1,33.8,29.83,ENE,74,0.0,0.0,78,0.00,,BKN100,0.00,VWS V14.01,2013-03-06 02:52:00,
2013-03-05 21:58:00,40.0,33.7,29.83,ESE,102,0.0,0.0,78,0.00,,BKN100,0.00,VWS V14.01,2013-03-06 02:58:00,
2013-03-05 22:03:00,40.0,33.7,29.81,ESE,109,0.0,0.0,78,0.00,,BKN100,0.00,VWS V14.01,2013-03-06 03:03:00,
2013-03-05 22:08:00,40.0,33.4,29.81,ESE,103,0.0,0.0,77,0.00,,BKN100,0.00,VWS V14.01,2013-03-06 03:08:00,
2013-03-05 22:13:00,40.0,33.4,29.81,ENE,71,0.0,0.0,77,0.00,,BKN100,0.00,VWS V14.01,2013-03-06 03:13:00,
2013-03-05 22:18:00,40.0,33.1,29.80,NE,56,0.0,0.0,76,0.00,,BKN100,0.00,VWS V14.01,2013-03-06 03:18:00,
2013-03-05 22:23:00,40.0,33.1,29.80,East,99,0.0,0.0,76,0.00,,BKN100,0.00,VWS V14.01,2013-03-06 03:23:00,
2013-03-05 22:28:00,40.0,32.7,29.80,ESE,119,0.0,0.0,75,0.00,,BKN100,0.00,VWS V14.01,2013-03-06 03:28:00,
2013-03-05 22:33:00,40.1,32.8,29.80,ESE,123,0.0,0.0,75,0.00,,BKN100,0.00,VWS V14.01,2013-03-06 03:33:00,
2013-03-05 22:38:00,40.1,32.8,29.80,ENE,69,0.0,0.0,75,0.00,,BKN100,0.00,VWS V14.01,2013-03-06 03:38:00,
2013-03-05 22:43:00,40.1,32.8,29.80,ENE,69,0.0,0.0,75,0.00,,BKN100,0.00,VWS V14.01,2013-03-06 03:43:00,
2013-03-05 22:48:00,40.1,32.8,29.79,East,101,0.0,0.0,75,0.00,,BKN100,0.00,VWS V14.01,2013-03-06 03:48:00,
2013-03-05 22:53:00,40.1,32.8,29.79,East,96,0.0,0.0,75,0.00,,BKN100,0.00,VWS V14.01,2013-03-06 03:53:00,
2013-03-05 22:58:00,40.0,32.7,29.79,ENE,69,0.0,0.0,75,0.00,,BKN100,0.00,VWS V14.01,2013-03-06 03:58:00,
2013-03-05 23:03:00,39.9,33.0,29.79,ENE,75,0.0,0.0,76,0.00,,BKN100,0.00,VWS V14.01,2013-03-06 04:03:00,
2013-03-05 23:08:00,39.9,33.0,29.79,ENE,70,0.0,0.0,76,0.00,,BKN100,0.00,VWS V14.01,2013-03-06 04:08:00,
2013-03-05 23:13:00,39.8,32.9,29.79,East,101,0.0,0.0,76,0.00,,BKN100,0.00,VWS V14.01,2013-03-06 04:13:00,
2013-03-05 23:18:00,39.7,32.4,29.79,East,79,0.0,0.0,75,0.00,,BKN100,0.00,VWS V14.01,2013-03-06 04:18:00,
2013-03-05 23:23:00,39.7,32.8,29.79,East,96,0.0,0.0,76,0.00,,BKN100,0.00,VWS V14.01,2013-03-06 04:23:00,
2013-03-05 23:28:00,39.7,32.8,29.79,ENE,70,0.0,0.0,76,0.00,,BKN100,0.00,VWS V14.01,2013-03-06 04:28:00,
2013-03-05 23:33:00,39.6,32.7,29.77,ENE,75,0.0,0.0,76,0.00,,BKN100,0.00,VWS V14.01,2013-03-06 04:33:00,
2013-03-05 23:38:00,39.6,32.7,29.77,ENE,60,0.0,0.0,76,0.00,,BKN100,0.00,VWS V14.01,2013-03-06 04:38:00,
2013-03-05 23:43:00,39.6,33.0,29.77,ENE,69,0.0,0.0,77,0.00,,BKN100,0.00,VWS V14.01,2013-03-06 04:43:00,
2013-03-05 23:48:00,39.5,33.2,29.76,ENE,65,0.0,0.0,78,0.00,,BKN100,0.00,VWS V14.01,2013-03-06 04:48:00,
2013-03-05 23:53:00,39.4,33.1,29.76,East,84,0.0,0.0,78,0.00,,BKN100,0.00,VWS V14.01,2013-03-06 04:53:00,
2013-03-05 23:58:00,39.4,33.1,29.76,ENE,65,0.0,0.0,78,0.00,,BKN100,0.00,VWS V14.01,2013-03-06 04:58:00,